createdAt,value
2018-06-12T00:01:49.171Z,10.40
2018-06-12T00:04:17.273Z,10.70
2018-06-12T00:06:45.473Z,11.57
2018-06-12T00:09:13.576Z,11.67
2018-06-12T00:11:41.689Z,11.03
2018-06-12T00:14:09.793Z,11.53
2018-06-12T00:16:38.010Z,11.00
2018-06-12T00:19:05.885Z,10.37
2018-06-12T00:21:34.005Z,12.10
2018-06-12T00:24:02.106Z,11.20
2018-06-12T00:26:30.346Z,11.63
2018-06-12T00:28:58.497Z,11.67
2018-06-12T00:31:26.658Z,11.50
2018-06-12T00:33:54.610Z,11.90
2018-06-12T00:36:22.726Z,10.93
2018-06-12T00:38:50.850Z,11.90
2018-06-12T00:41:18.954Z,12.30
2018-06-12T00:43:47.109Z,11.30
2018-06-12T00:46:15.282Z,12.33
2018-06-12T00:48:43.522Z,13.10
2018-06-12T00:51:11.661Z,12.90
2018-06-12T00:53:39.962Z,12.13
2018-06-12T00:56:08.097Z,11.50
2018-06-12T00:58:36.873Z,12.53
2018-06-12T01:01:05.098Z,12.07
2018-06-12T01:03:33.253Z,13.27
2018-06-12T01:06:01.391Z,12.93
2018-06-12T01:08:29.546Z,11.73
2018-06-12T01:10:57.737Z,12.40
2018-06-12T01:13:26.041Z,13.07
2018-06-12T01:15:54.186Z,12.10
2018-06-12T01:18:22.337Z,11.60
2018-06-12T01:20:50.537Z,12.90
2018-06-12T01:23:18.719Z,13.17
2018-06-12T01:25:46.848Z,11.40
2018-06-12T01:28:15.000Z,11.70
2018-06-12T01:30:43.146Z,12.83
2018-06-12T01:33:11.322Z,12.30
2018-06-12T01:35:39.489Z,11.97
2018-06-12T01:38:07.633Z,12.20
2018-06-12T01:40:35.778Z,12.40
2018-06-12T01:43:03.969Z,12.33
2018-06-12T01:45:32.134Z,11.00
2018-06-12T01:48:00.270Z,11.80
2018-06-12T01:50:28.414Z,12.60
2018-06-12T01:52:56.558Z,12.27
2018-06-12T01:55:24.706Z,11.03
2018-06-12T01:57:52.869Z,11.20
2018-06-12T02:00:21.024Z,11.60
2018-06-12T02:02:49.159Z,11.87
2018-06-12T02:05:17.346Z,12.47
2018-06-12T02:07:45.507Z,12.03
2018-06-12T02:10:13.638Z,12.70
2018-06-12T02:12:41.785Z,11.93
2018-06-12T02:15:09.965Z,12.00
2018-06-12T02:17:38.813Z,10.63
2018-06-12T02:20:06.773Z,11.53
2018-06-12T02:22:34.915Z,11.60
2018-06-12T02:25:03.073Z,11.20
2018-06-12T02:27:31.209Z,11.30
2018-06-12T02:29:59.357Z,12.10
2018-06-12T02:32:27.503Z,11.33
2018-06-12T02:34:55.661Z,11.60
2018-06-12T02:37:24.041Z,12.20
2018-06-12T02:39:52.242Z,12.77
2018-06-12T02:42:20.388Z,11.60
2018-06-12T02:44:48.526Z,14.10
2018-06-12T02:47:16.678Z,14.30
2018-06-12T02:49:44.848Z,13.93
2018-06-12T02:52:13.010Z,13.77
2018-06-12T02:54:41.170Z,13.73
2018-06-12T02:57:09.321Z,13.13
2018-06-12T02:59:37.598Z,13.30
2018-06-12T03:02:05.780Z,13.87
2018-06-12T03:04:33.927Z,14.17
2018-06-12T03:07:02.075Z,12.17
2018-06-12T03:09:30.210Z,13.10
2018-06-12T03:11:58.373Z,11.97
2018-06-12T03:14:26.601Z,13.50
2018-06-12T03:16:54.766Z,12.90
2018-06-12T03:19:22.945Z,12.00
2018-06-12T03:21:51.185Z,12.47
2018-06-12T03:24:19.351Z,12.83
2018-06-12T03:26:47.502Z,11.83
2018-06-12T03:29:15.725Z,12.53
2018-06-12T03:31:43.918Z,11.97
2018-06-12T03:34:12.126Z,12.00
2018-06-12T03:36:40.335Z,11.70
2018-06-12T03:39:08.470Z,12.20
2018-06-12T03:41:36.621Z,11.93
2018-06-12T03:44:04.901Z,11.93
2018-06-12T03:46:33.918Z,11.93
2018-06-12T03:49:02.063Z,12.43
2018-06-12T03:51:30.221Z,11.03
2018-06-12T03:53:58.394Z,13.10
2018-06-12T03:56:26.558Z,11.30
2018-06-12T03:58:54.706Z,11.87
2018-06-12T04:01:22.846Z,11.23
2018-06-12T04:03:50.994Z,10.43
2018-06-12T04:06:19.139Z,11.37
2018-06-12T04:08:47.413Z,11.67
2018-06-12T04:11:15.563Z,12.63
2018-06-12T04:13:43.714Z,11.10
2018-06-12T04:16:12.707Z,12.93
2018-06-12T04:18:40.957Z,11.40
2018-06-12T04:21:09.102Z,11.90
2018-06-12T04:23:37.258Z,12.83
2018-06-12T04:26:05.405Z,12.33
2018-06-12T04:28:33.373Z,11.97
2018-06-12T04:31:01.339Z,11.40
2018-06-12T04:33:29.495Z,11.90
2018-06-12T04:35:57.641Z,11.90
2018-06-12T04:38:25.813Z,12.30
2018-06-12T04:40:53.988Z,11.30
2018-06-12T04:43:22.288Z,11.90
2018-06-12T04:45:50.438Z,11.97
2018-06-12T04:48:18.643Z,12.90
2018-06-12T04:50:46.882Z,11.60
2018-06-12T04:53:15.026Z,11.77
2018-06-12T04:55:43.182Z,11.40
2018-06-12T04:58:11.322Z,11.13
2018-06-12T05:00:39.627Z,12.20
2018-06-12T05:03:07.883Z,12.17
2018-06-12T05:05:36.034Z,13.30
2018-06-12T05:08:03.929Z,13.80
2018-06-12T05:10:32.108Z,14.33
2018-06-12T05:13:00.281Z,14.33
2018-06-12T05:15:28.554Z,14.40
2018-06-12T05:17:56.718Z,13.73
2018-06-12T05:20:24.694Z,14.20
2018-06-12T05:22:52.889Z,13.67
2018-06-12T05:25:21.070Z,13.97
2018-06-12T05:27:49.354Z,14.60
2018-06-12T05:30:17.499Z,14.60
2018-06-12T05:32:45.629Z,14.03
2018-06-12T05:35:13.786Z,14.63
2018-06-12T05:37:41.926Z,13.60
2018-06-12T05:40:10.091Z,13.60
2018-06-12T05:42:38.658Z,13.77
2018-06-12T05:45:06.841Z,14.27
2018-06-12T05:47:35.174Z,14.57
2018-06-12T05:50:03.331Z,14.17
2018-06-12T05:52:31.482Z,14.73
2018-06-12T05:54:59.693Z,15.30
2018-06-12T05:57:27.835Z,13.93
2018-06-12T05:59:55.982Z,14.70
2018-06-12T06:02:24.125Z,13.80
2018-06-12T06:04:52.328Z,13.50
2018-06-12T06:07:20.514Z,13.57
2018-06-12T06:09:48.654Z,13.63
2018-06-12T06:12:16.863Z,12.93
2018-06-12T06:14:44.994Z,12.80
2018-06-12T06:17:13.314Z,12.43
2018-06-12T06:19:41.533Z,11.90
2018-06-12T06:22:09.678Z,10.83
2018-06-12T06:24:37.839Z,10.50
2018-06-12T06:27:05.772Z,10.13
2018-06-12T06:29:33.946Z,9.87
2018-06-12T06:32:02.105Z,10.00
2018-06-12T06:34:30.237Z,9.90
2018-06-12T06:36:58.187Z,10.10
2018-06-12T06:39:26.406Z,9.57
2018-06-12T06:41:54.572Z,8.83
2018-06-12T06:44:22.722Z,9.30
2018-06-12T06:46:50.854Z,8.27
2018-06-12T06:49:20.055Z,8.07
2018-06-12T06:51:48.258Z,9.00
2018-06-12T06:54:16.410Z,7.97
2018-06-12T06:56:44.566Z,7.70
2018-06-12T06:59:12.743Z,7.37
2018-06-12T07:01:40.906Z,7.50
2018-06-12T07:04:09.177Z,6.23
2018-06-12T07:06:37.313Z,7.00
2018-06-12T07:09:07.855Z,6.60
2018-06-12T07:11:35.991Z,7.30
2018-06-12T07:14:04.142Z,6.70
2018-06-12T07:16:32.336Z,6.27
2018-06-12T07:19:01.124Z,6.90
2018-06-12T07:21:29.033Z,6.40
2018-06-12T07:23:57.187Z,7.30
2018-06-12T07:26:25.363Z,6.70
2018-06-12T07:28:53.568Z,6.50
2018-06-12T07:31:21.702Z,7.00
2018-06-12T07:33:49.858Z,6.30
2018-06-12T07:36:17.997Z,6.53
2018-06-12T07:38:46.258Z,6.80
2018-06-12T07:41:14.398Z,6.50
2018-06-12T07:43:42.547Z,6.20
2018-06-12T07:46:10.677Z,6.17
2018-06-12T07:48:39.274Z,6.70
2018-06-12T07:51:08.106Z,5.80
2018-06-12T07:53:36.246Z,5.93
2018-06-12T07:56:04.397Z,6.33
2018-06-12T07:58:32.537Z,5.90
2018-06-12T08:01:00.772Z,5.73
2018-06-12T08:03:28.927Z,6.60
2018-06-12T08:05:57.045Z,4.93
2018-06-12T08:08:25.262Z,7.13
2018-06-12T08:10:53.482Z,7.10
2018-06-12T08:13:21.666Z,6.67
2018-06-12T08:15:49.945Z,7.90
2018-06-12T08:18:18.065Z,6.63
2018-06-12T08:20:46.214Z,6.70
2018-06-12T08:23:14.377Z,6.37
2018-06-12T08:25:42.550Z,6.23
2018-06-12T08:28:10.686Z,7.83
2018-06-12T08:30:38.867Z,6.57
2018-06-12T08:33:07.170Z,7.73
2018-06-12T08:35:35.354Z,7.10
2018-06-12T08:38:03.483Z,6.57
2018-06-12T08:40:31.629Z,7.13
2018-06-12T08:42:59.798Z,5.93
2018-06-12T08:45:28.876Z,7.53
2018-06-12T08:47:57.013Z,7.07
2018-06-12T08:50:25.170Z,6.93
2018-06-12T08:52:53.306Z,6.77
2018-06-12T08:55:21.509Z,6.37
2018-06-12T08:57:49.773Z,7.50
2018-06-12T09:00:17.972Z,7.27
2018-06-12T09:02:46.161Z,7.20
2018-06-12T09:05:14.247Z,6.97
2018-06-12T09:07:42.538Z,7.63
2018-06-12T09:10:10.842Z,8.50
2018-06-12T09:12:38.988Z,8.17
2018-06-12T09:15:07.196Z,8.33
2018-06-12T09:17:35.414Z,8.83
2018-06-12T09:20:03.917Z,7.60
2018-06-12T09:22:32.162Z,8.03
2018-06-12T09:25:00.297Z,7.40
2018-06-12T09:27:28.446Z,8.40
2018-06-12T09:29:56.582Z,7.27
2018-06-12T09:32:24.803Z,8.13
2018-06-12T09:34:53.006Z,7.70
2018-06-12T09:37:21.206Z,8.10
2018-06-12T09:39:49.381Z,8.43
2018-06-12T09:42:17.578Z,8.30
2018-06-12T09:44:45.725Z,8.40
2018-06-12T09:47:13.875Z,8.87
2018-06-12T09:49:42.014Z,8.30
2018-06-12T09:52:11.223Z,8.63
2018-06-12T09:54:39.502Z,8.80
2018-06-12T09:57:07.658Z,6.93
2018-06-12T09:59:35.846Z,7.50
2018-06-12T10:02:03.754Z,6.73
2018-06-12T10:04:31.953Z,6.97
2018-06-12T10:07:00.118Z,7.10
2018-06-12T10:09:28.266Z,7.70
2018-06-12T10:11:56.406Z,7.67
2018-06-12T10:14:24.678Z,6.33
2018-06-12T10:16:52.871Z,7.20
2018-06-12T10:19:21.025Z,7.67
2018-06-12T10:21:49.165Z,8.93
2018-06-12T10:24:17.343Z,7.00
2018-06-12T10:26:46.062Z,6.47
2018-06-12T10:29:14.221Z,8.47
2018-06-12T10:31:42.390Z,7.13
2018-06-12T10:34:10.533Z,8.23
2018-06-12T10:36:38.746Z,7.47
2018-06-12T10:39:07.893Z,8.80
2018-06-12T10:41:36.070Z,8.60
2018-06-12T10:44:04.286Z,9.60
2018-06-12T10:46:32.453Z,9.07
2018-06-12T10:49:01.286Z,9.07
2018-06-12T10:51:29.881Z,8.50
2018-06-12T10:53:58.081Z,8.13
2018-06-12T10:56:26.322Z,7.50
2018-06-12T10:58:54.426Z,8.80
2018-06-12T11:01:23.405Z,7.60
2018-06-12T11:03:51.542Z,7.30
2018-06-12T11:06:19.698Z,8.00
2018-06-12T11:08:47.837Z,7.80
2018-06-12T11:11:16.097Z,6.63
2018-06-12T11:13:44.266Z,5.60
2018-06-12T11:16:12.409Z,6.33
2018-06-12T11:18:40.626Z,6.47
2018-06-12T11:21:08.769Z,5.57
2018-06-12T11:23:36.921Z,5.90
2018-06-12T11:26:05.069Z,6.70
2018-06-12T11:28:33.206Z,7.00
2018-06-12T11:31:01.407Z,7.20
2018-06-12T11:33:29.695Z,6.07
2018-06-12T11:35:57.899Z,6.80
2018-06-12T11:38:26.090Z,6.20
2018-06-12T11:40:54.246Z,6.13
2018-06-12T11:43:22.401Z,5.90
2018-06-12T11:45:50.602Z,5.77
2018-06-12T11:48:18.766Z,5.40
2018-06-12T11:50:46.911Z,5.97
2018-06-12T11:53:15.120Z,5.63
2018-06-12T11:55:43.693Z,5.60
2018-06-12T11:58:11.863Z,6.40
2018-06-12T12:00:40.004Z,6.17
2018-06-12T12:03:08.150Z,5.90
2018-06-12T12:05:36.377Z,5.90
2018-06-12T12:08:04.522Z,5.93
2018-06-12T12:10:32.674Z,6.30
2018-06-12T12:13:00.818Z,6.13
2018-06-12T12:15:28.956Z,5.90
2018-06-12T12:17:57.153Z,5.70
2018-06-12T12:20:25.338Z,6.57
2018-06-12T12:22:53.522Z,6.50
2018-06-12T12:25:21.706Z,6.13
2018-06-12T12:27:49.858Z,5.60
2018-06-12T12:30:17.999Z,6.97
2018-06-12T12:32:46.146Z,6.93
2018-06-12T12:35:14.318Z,7.40
2018-06-12T12:37:42.473Z,7.20
2018-06-12T12:40:10.634Z,6.60
2018-06-12T12:42:38.794Z,7.57
2018-06-12T12:45:06.940Z,6.57
2018-06-12T12:47:35.228Z,7.00
2018-06-12T12:50:04.111Z,6.40
2018-06-12T12:52:32.337Z,6.63
2018-06-12T12:55:00.489Z,7.00
2018-06-12T12:57:28.682Z,6.43
2018-06-12T12:59:56.861Z,6.80
2018-06-12T13:02:25.022Z,7.67
2018-06-12T13:04:53.194Z,7.60
2018-06-12T13:07:21.384Z,8.70
2018-06-12T13:09:50.574Z,8.23
2018-06-12T13:12:18.774Z,7.40
2018-06-12T13:14:46.944Z,9.40
2018-06-12T13:17:15.081Z,8.40
2018-06-12T13:19:43.234Z,9.33
2018-06-12T13:22:11.406Z,10.00
2018-06-12T13:24:39.593Z,8.80
2018-06-12T13:27:07.742Z,9.23
2018-06-12T13:29:35.991Z,8.67
2018-06-12T13:32:04.147Z,9.43
2018-06-12T13:34:32.364Z,8.80
2018-06-12T13:37:00.510Z,8.83
2018-06-12T13:39:28.754Z,9.17
2018-06-12T13:41:56.923Z,8.67
2018-06-12T13:44:25.202Z,9.73
2018-06-12T13:46:54.062Z,8.60
2018-06-12T13:49:22.198Z,9.33
2018-06-12T13:51:50.105Z,7.70
2018-06-12T13:54:18.355Z,8.37
2018-06-12T13:56:46.662Z,9.10
2018-06-12T13:59:14.805Z,8.57
2018-06-12T14:01:42.998Z,8.60
2018-06-12T14:04:11.150Z,9.20
2018-06-12T14:06:39.354Z,9.30
2018-06-12T14:09:08.091Z,8.80
2018-06-12T14:11:36.265Z,7.83
2018-06-12T14:14:04.478Z,9.60
2018-06-12T14:16:32.637Z,8.73
2018-06-12T14:19:00.837Z,7.93
2018-06-12T14:21:28.749Z,9.60
2018-06-12T14:23:56.931Z,8.97
2018-06-12T14:26:25.219Z,7.97
2018-06-12T14:28:53.484Z,8.60
2018-06-12T14:31:21.662Z,8.73
2018-06-12T14:33:49.819Z,8.47
2018-06-12T14:36:17.970Z,8.30
2018-06-12T14:38:46.169Z,7.90
2018-06-12T14:41:14.322Z,8.13
2018-06-12T14:43:42.490Z,8.00
2018-06-12T14:46:10.646Z,8.53
2018-06-12T14:48:38.842Z,7.60
2018-06-12T14:51:06.998Z,7.97
2018-06-12T14:53:35.146Z,7.90
2018-06-12T14:56:03.297Z,7.90
2018-06-12T14:58:31.471Z,7.67
2018-06-12T15:00:59.898Z,8.40
2018-06-12T15:03:29.030Z,8.10
2018-06-12T15:05:57.157Z,8.73
2018-06-12T15:08:25.305Z,8.57
2018-06-12T15:10:53.450Z,8.97
2018-06-12T15:13:21.609Z,8.60
2018-06-12T15:15:49.746Z,6.80
2018-06-12T15:18:17.653Z,7.80
2018-06-12T15:20:45.789Z,7.70
2018-06-12T15:23:14.010Z,8.27
2018-06-12T15:25:42.254Z,8.97
2018-06-12T15:28:10.410Z,9.20
2018-06-12T15:30:38.550Z,9.10
2018-06-12T15:33:06.730Z,9.03
2018-06-12T15:35:34.914Z,8.10
2018-06-12T15:38:03.046Z,7.33
2018-06-12T15:40:31.190Z,8.70
2018-06-12T15:42:59.385Z,7.90
2018-06-12T15:45:27.545Z,8.53
2018-06-12T15:47:55.699Z,8.70
2018-06-12T15:50:23.837Z,7.60
2018-06-12T15:52:51.982Z,8.50
2018-06-12T15:55:20.122Z,6.70
2018-06-12T15:57:48.269Z,8.00
2018-06-12T16:00:16.431Z,7.73
2018-06-12T16:02:44.690Z,7.33
2018-06-12T16:05:12.868Z,7.17
2018-06-12T16:07:41.110Z,8.23
2018-06-12T16:10:09.259Z,9.20
2018-06-12T16:12:37.405Z,7.70
2018-06-12T16:15:05.607Z,8.67
2018-06-12T16:17:33.566Z,7.97
2018-06-12T16:20:01.783Z,8.50
2018-06-12T16:22:29.930Z,7.87
2018-06-12T16:24:58.085Z,7.70
2018-06-12T16:27:26.225Z,6.87
2018-06-12T16:29:54.438Z,8.50
2018-06-12T16:32:22.590Z,8.40
2018-06-12T16:34:50.745Z,9.20
2018-06-12T16:37:18.920Z,8.60
2018-06-12T16:39:47.086Z,8.57
2018-06-12T16:42:15.234Z,9.60
2018-06-12T16:44:43.465Z,8.97
2018-06-12T16:47:11.642Z,8.10
2018-06-12T16:49:39.585Z,7.70
2018-06-12T16:52:07.537Z,9.00
2018-06-12T16:54:35.730Z,9.47
2018-06-12T16:57:03.644Z,8.30
2018-06-12T16:59:31.815Z,8.27
2018-06-12T17:02:00.002Z,8.83
2018-06-12T17:04:28.176Z,8.73
2018-06-12T17:06:56.348Z,8.57
2018-06-12T17:09:24.501Z,9.47
2018-06-12T17:11:54.599Z,9.67
2018-06-12T17:14:22.771Z,9.27
2018-06-12T17:16:50.905Z,9.63
2018-06-12T17:19:20.856Z,9.27
2018-06-12T17:21:49.741Z,9.80
2018-06-12T17:24:17.910Z,9.17
2018-06-12T17:26:46.275Z,8.50
2018-06-12T17:29:14.570Z,8.53
2018-06-12T17:31:42.758Z,8.20
2018-06-12T17:34:11.011Z,8.00
2018-06-12T17:36:39.214Z,7.83
2018-06-12T17:39:07.819Z,7.87
2018-06-12T17:41:36.055Z,7.67
2018-06-12T17:44:04.449Z,8.13
2018-06-12T17:46:32.615Z,8.67
2018-06-12T17:49:00.823Z,8.80
2018-06-12T17:51:28.971Z,8.50
2018-06-12T17:53:57.113Z,8.37
2018-06-12T17:56:25.269Z,8.80
2018-06-12T17:58:53.521Z,8.07
2018-06-12T18:01:21.669Z,8.43
2018-06-12T18:03:49.830Z,8.33
2018-06-12T18:06:18.386Z,8.90
2018-06-12T18:08:46.558Z,8.10
2018-06-12T18:11:15.313Z,9.13
2018-06-12T18:13:43.655Z,8.93
2018-06-12T18:16:11.806Z,8.50
2018-06-12T18:18:39.974Z,8.87
2018-06-12T18:21:08.138Z,9.13
2018-06-12T18:23:36.325Z,8.80
2018-06-12T18:26:04.502Z,9.00
2018-06-12T18:28:32.650Z,8.27
2018-06-12T18:31:00.842Z,9.10
2018-06-12T18:33:29.062Z,8.53
2018-06-12T18:35:57.194Z,8.93
2018-06-12T18:38:25.349Z,8.30
2018-06-12T18:40:53.319Z,9.73
2018-06-12T18:43:21.612Z,9.43
2018-06-12T18:45:49.763Z,9.07
2018-06-12T18:48:17.921Z,8.90
2018-06-12T18:50:46.070Z,8.60
2018-06-12T18:53:14.336Z,9.33
2018-06-12T18:55:42.554Z,8.80
2018-06-12T18:58:10.709Z,8.27
2018-06-12T19:00:39.178Z,8.23
2018-06-12T19:03:07.386Z,8.70
2018-06-12T19:05:35.626Z,8.70
2018-06-12T19:08:03.786Z,8.33
2018-06-12T19:10:31.990Z,8.07
2018-06-12T19:13:00.714Z,7.30
2018-06-12T19:15:30.057Z,8.00
2018-06-12T19:17:58.263Z,8.50
2018-06-12T19:20:27.567Z,8.13
2018-06-12T19:22:55.745Z,7.90
2018-06-12T19:25:23.921Z,7.80
2018-06-12T19:27:52.082Z,7.53
2018-06-12T19:30:20.549Z,8.30
2018-06-12T19:32:54.189Z,8.10
2018-06-12T19:35:23.286Z,7.23
2018-06-12T19:37:51.454Z,7.77
2018-06-12T19:40:19.743Z,6.90
2018-06-12T19:42:47.920Z,6.87
2018-06-12T19:45:16.070Z,6.20
2018-06-12T19:47:44.358Z,5.40
2018-06-12T19:50:12.483Z,5.70
2018-06-12T19:52:40.630Z,5.60
2018-06-12T19:55:08.814Z,4.30
2018-06-12T19:57:36.934Z,4.70
2018-06-12T20:00:05.090Z,5.07
2018-06-12T20:02:33.282Z,4.97
2018-06-12T20:05:02.248Z,5.20
2018-06-12T20:07:30.385Z,4.87
2018-06-12T20:09:58.534Z,5.20
2018-06-12T20:12:26.701Z,5.07
2018-06-12T20:14:54.885Z,5.37
2018-06-12T20:17:23.042Z,5.43
2018-06-12T20:19:51.282Z,5.30
2018-06-12T20:22:19.486Z,5.30
